Time;durP1;ratioP1;P1;durP2;ratioP2;P2;SDS_P1;SDS_P2;PMS_P1;PMS_P2;Temp;Humidity;BMP_temperature;BMP_pressure;BME280_temperature;BME280_humidity;BME280_pressure;Samples;Min_cycle;Max_cycle;Signal;HPM_P1;HPM_P2
2023/09/13 00:00:17;;;;;;;3.53;1.70;;;18.50;99.90;;;;;;4992443;28;20035;-86
2023/09/13 00:02:43;;;;;;;6.18;1.95;;;18.50;99.90;;;;;;4991747;28;20031;-83
2023/09/13 00:05:09;;;;;;;4.65;1.92;;;18.50;99.90;;;;;;4991988;28;20030;-86
2023/09/13 00:07:35;;;;;;;6.40;1.77;;;18.30;99.90;;;;;;4992082;28;20031;-85
2023/09/13 00:10:01;;;;;;;5.03;1.80;;;18.30;99.90;;;;;;4992155;28;20010;-86
2023/09/13 00:12:27;;;;;;;5.40;2.05;;;18.20;99.90;;;;;;4992083;28;20150;-86
2023/09/13 00:14:52;;;;;;;9.85;2.20;;;18.30;99.90;;;;;;4992165;28;20034;-85
2023/09/13 00:17:21;;;;;;;4.75;1.88;;;18.20;99.90;;;;;;4989589;28;20494;-86
2023/09/13 00:19:47;;;;;;;6.65;1.80;;;18.20;99.90;;;;;;4984160;28;20034;-85
2023/09/13 00:22:12;;;;;;;6.70;2.08;;;18.10;99.90;;;;;;4992750;28;20026;-86
2023/09/13 00:24:38;;;;;;;4.93;1.90;;;18.00;99.90;;;;;;4990325;28;20039;-87
2023/09/13 00:27:04;;;;;;;4.85;1.73;;;18.00;99.90;;;;;;4991864;28;20310;-85
2023/09/13 00:29:33;;;;;;;5.28;1.80;;;18.00;99.90;;;;;;4991721;28;20089;-87
2023/09/13 00:31:59;;;;;;;5.03;1.98;;;18.00;99.90;;;;;;4990454;28;20038;-83
2023/09/13 00:34:25;;;;;;;5.15;1.70;;;17.90;99.90;;;;;;4991100;28;20030;-83
2023/09/13 00:36:51;;;;;;;5.75;1.85;;;17.90;99.90;;;;;;4991622;28;20085;-83
2023/09/13 00:39:16;;;;;;;2.95;1.65;;;17.80;99.90;;;;;;4991576;28;20122;-84
2023/09/13 00:41:42;;;;;;;3.92;2.03;;;17.80;99.90;;;;;;4992472;28;20553;-86
2023/09/13 00:44:07;;;;;;;6.38;3.08;;;17.80;99.90;;;;;;4990186;28;20070;-82
2023/09/13 00:46:34;;;;;;;6.00;1.90;;;17.80;99.90;;;;;;4991477;28;20018;-83
2023/09/13 00:49:01;;;;;;;7.40;1.80;;;17.80;99.90;;;;;;4990597;28;20069;-83
2023/09/13 00:51:27;;;;;;;3.30;1.60;;;17.70;99.90;;;;;;4989304;28;20391;-87
2023/09/13 00:53:54;;;;;;;3.33;1.67;;;17.60;99.90;;;;;;4990151;28;20034;-82
2023/09/13 00:56:19;;;;;;;6.93;1.75;;;17.60;99.90;;;;;;4991146;28;20382;-82
2023/09/13 00:58:47;;;;;;;5.70;1.90;;;17.60;99.90;;;;;;4991897;28;20034;-83
2023/09/13 01:01:13;;;;;;;5.28;2.10;;;17.60;99.90;;;;;;4991959;28;20022;-85
2023/09/13 01:03:40;;;;;;;4.97;1.80;;;17.60;99.90;;;;;;4991114;28;20038;-85
2023/09/13 01:06:09;;;;;;;4.70;1.95;;;17.60;99.90;;;;;;4990295;28;20755;-86
2023/09/13 01:08:39;;;;;;;3.63;1.80;;;17.50;99.90;;;;;;4991199;28;20486;-83
2023/09/13 01:11:06;;;;;;;4.13;1.80;;;17.50;99.90;;;;;;4990923;28;20475;-85
2023/09/13 01:13:32;;;;;;;5.53;1.90;;;17.40;99.90;;;;;;4990897;28;20018;-83
2023/09/13 01:16:18;;;;;;;7.15;1.90;;;17.40;99.90;;;;;;4990798;28;20041;-85
2023/09/13 01:18:54;;;;;;;5.85;2.03;;;17.40;99.90;;;;;;4991758;28;20093;-84
2023/09/13 01:21:37;;;;;;;8.07;2.90;;;17.30;99.90;;;;;;4990067;28;20035;-82
2023/09/13 01:24:12;;;;;;;2.55;1.50;;;17.20;99.90;;;;;;4990544;28;20046;-86
2023/09/13 01:27:25;;;;;;;3.33;1.90;;;17.10;99.90;;;;;;4989392;28;20394;-86
2023/09/13 01:29:51;;;;;;;7.88;2.13;;;17.10;99.90;;;;;;4974506;28;20031;-87
2023/09/13 01:32:19;;;;;;;5.05;1.80;;;17.00;99.90;;;;;;4991360;28;20031;-85
2023/09/13 01:34:44;;;;;;;6.32;2.03;;;17.00;99.90;;;;;;4990059;28;20014;-83
2023/09/13 01:37:10;;;;;;;11.48;2.05;;;17.00;99.90;;;;;;4988886;28;20146;-84
2023/09/13 01:39:36;;;;;;;6.72;2.17;;;17.00;99.90;;;;;;4989042;28;20453;-87
2023/09/13 01:42:08;;;;;;;7.93;2.00;;;17.00;99.90;;;;;;4990381;28;20463;-84
2023/09/13 01:44:40;;;;;;;4.68;1.92;;;17.00;99.90;;;;;;4990343;28;20061;-83
2023/09/13 01:47:07;;;;;;;7.32;1.90;;;17.00;99.90;;;;;;4989087;28;20034;-86
2023/09/13 01:49:35;;;;;;;3.40;2.13;;;16.90;99.90;;;;;;4989085;28;20375;-83
2023/09/13 01:52:04;;;;;;;10.55;2.33;;;16.90;99.90;;;;;;4989236;28;20046;-86
2023/09/13 01:54:33;;;;;;;4.57;1.98;;;16.80;99.90;;;;;;4987543;28;20030;-83
2023/09/13 01:56:58;;;;;;;3.95;1.88;;;16.80;99.90;;;;;;4985321;28;20506;-82
2023/09/13 01:59:24;;;;;;;3.60;1.75;;;16.70;99.90;;;;;;4978461;28;20043;-84
2023/09/13 02:01:49;;;;;;;3.30;1.88;;;16.80;99.90;;;;;;4976937;28;20042;-83
2023/09/13 02:04:15;;;;;;;2.95;1.67;;;16.80;99.90;;;;;;4990125;28;20029;-82
2023/09/13 02:06:40;;;;;;;6.32;2.30;;;16.70;99.90;;;;;;4990176;28;20049;-87
2023/09/13 02:09:06;;;;;;;6.35;2.00;;;16.70;99.90;;;;;;4989182;28;20034;-87
2023/09/13 02:11:32;;;;;;;8.63;2.00;;;16.70;99.90;;;;;;4988833;28;20023;-86
2023/09/13 02:13:58;;;;;;;3.75;1.88;;;16.70;99.90;;;;;;4989985;28;20027;-84
2023/09/13 02:16:24;;;;;;;6.25;2.15;;;16.60;99.90;;;;;;4989915;28;20102;-84
2023/09/13 02:18:50;;;;;;;8.38;2.63;;;16.60;99.90;;;;;;4989333;28;20035;-82
2023/09/13 02:21:16;;;;;;;5.32;1.95;;;16.60;99.90;;;;;;4989861;28;20033;-87
2023/09/13 02:23:43;;;;;;;4.45;1.80;;;16.60;99.90;;;;;;4989790;28;20038;-86
2023/09/13 02:26:21;;;;;;;7.47;2.53;;;16.60;99.90;;;;;;4989759;28;20065;-86
2023/09/13 02:28:47;;;;;;;;;;;16.50;99.90;;;;;;4989781;28;20113;-84
2023/09/13 02:31:12;;;;;;;4.57;2.15;;;16.40;99.90;;;;;;4989878;28;20401;-87
2023/09/13 02:33:38;;;;;;;6.18;2.15;;;16.30;99.90;;;;;;4988099;28;20113;-83
2023/09/13 02:36:04;;;;;;;4.90;2.10;;;16.30;99.90;;;;;;4989098;28;20034;-84
2023/09/13 02:38:29;;;;;;;6.50;1.90;;;16.30;99.90;;;;;;4988481;28;20029;-84
2023/09/13 02:40:55;;;;;;;7.15;2.03;;;16.30;99.90;;;;;;4988427;28;20065;-84
2023/09/13 02:43:21;;;;;;;8.30;2.50;;;16.30;99.90;;;;;;4989203;28;20113;-85
2023/09/13 02:45:47;;;;;;;4.45;1.88;;;16.30;99.90;;;;;;4989120;28;20442;-85
2023/09/13 02:48:12;;;;;;;5.43;2.20;;;16.30;99.90;;;;;;4988700;28;20120;-85
2023/09/13 02:50:41;;;;;;;4.32;2.20;;;16.30;99.90;;;;;;4988447;28;20027;-86
2023/09/13 02:53:07;;;;;;;4.57;2.00;;;16.30;99.90;;;;;;4989706;28;20031;-86
2023/09/13 02:55:32;;;;;;;5.75;2.05;;;16.20;99.90;;;;;;4988367;28;20351;-84
2023/09/13 02:57:58;;;;;;;3.40;1.90;;;16.20;99.90;;;;;;4989492;28;20109;-84
2023/09/13 03:00:23;;;;;;;7.03;1.83;;;16.20;99.90;;;;;;4989610;28;20046;-83
2023/09/13 03:02:49;;;;;;;6.82;2.25;;;16.10;99.90;;;;;;4990211;28;20018;-84
2023/09/13 03:05:15;;;;;;;5.50;1.88;;;16.10;99.90;;;;;;4987545;28;20397;-84
2023/09/13 03:07:41;;;;;;;3.90;2.03;;;16.10;99.90;;;;;;4989570;28;20019;-86
2023/09/13 03:10:07;;;;;;;6.18;2.40;;;16.00;99.90;;;;;;4992082;28;20049;-86
2023/09/13 03:12:33;;;;;;;6.65;2.17;;;16.00;99.90;;;;;;4998469;28;20030;-87
2023/09/13 03:14:59;;;;;;;5.32;2.35;;;16.10;99.90;;;;;;5010893;28;20508;-86
2023/09/13 03:17:24;;;;;;;4.95;2.08;;;16.00;99.90;;;;;;5011877;28;20026;-87
2023/09/13 03:19:50;;;;;;;5.75;2.13;;;16.00;99.90;;;;;;5003239;28;20034;-84
2023/09/13 03:22:16;;;;;;;8.70;2.10;;;16.00;99.90;;;;;;4993047;28;20033;-84
2023/09/13 03:24:41;;;;;;;7.53;2.30;;;16.00;99.90;;;;;;5001413;28;20041;-86
2023/09/13 03:27:08;;;;;;;5.97;2.08;;;15.90;99.90;;;;;;5012507;28;20030;-86
2023/09/13 03:29:33;;;;;;;5.57;2.08;;;16.00;99.90;;;;;;5012641;28;20054;-85
2023/09/13 03:32:01;;;;;;;3.55;2.15;;;15.90;99.90;;;;;;5012080;28;20033;-86
2023/09/13 03:34:26;;;;;;;5.03;2.07;;;15.80;99.90;;;;;;5012297;28;20108;-86
2023/09/13 03:36:53;;;;;;;9.13;1.83;;;15.90;99.90;;;;;;5002906;28;20353;-85
2023/09/13 03:39:18;;;;;;;5.78;1.90;;;15.90;99.90;;;;;;4992746;28;20486;-85
2023/09/13 03:41:44;;;;;;;5.43;2.25;;;15.90;99.90;;;;;;4992588;28;20065;-86
2023/09/13 03:44:10;;;;;;;5.15;2.10;;;15.80;99.90;;;;;;4992717;28;20453;-86
2023/09/13 03:46:36;;;;;;;4.72;1.90;;;15.70;99.90;;;;;;4991462;28;20029;-86
2023/09/13 03:49:02;;;;;;;4.40;2.00;;;15.70;99.90;;;;;;4992442;28;20023;-86
2023/09/13 03:51:27;;;;;;;4.35;2.13;;;15.70;99.90;;;;;;4992509;28;20026;-85
2023/09/13 03:53:53;;;;;;;3.70;2.20;;;15.70;99.90;;;;;;4992831;28;20122;-84
2023/09/13 03:56:19;;;;;;;10.57;2.15;;;15.60;99.90;;;;;;4992204;28;20030;-85
2023/09/13 03:58:44;;;;;;;4.40;1.75;;;15.70;99.90;;;;;;4992057;28;20403;-85
2023/09/13 04:01:10;;;;;;;5.05;2.17;;;15.70;99.90;;;;;;4991964;28;20453;-83
2023/09/13 04:03:36;;;;;;;2.38;1.83;;;15.60;99.90;;;;;;4991166;28;20121;-87
2023/09/13 04:06:02;;;;;;;5.22;2.00;;;15.70;99.90;;;;;;4992150;28;20034;-84
2023/09/13 04:08:28;;;;;;;4.20;1.73;;;15.70;99.90;;;;;;4992008;28;20024;-85
2023/09/13 04:10:54;;;;;;;6.63;2.20;;;15.70;99.90;;;;;;4979611;28;20109;-84
2023/09/13 04:13:20;;;;;;;6.22;2.08;;;15.60;99.90;;;;;;4987858;28;20070;-86
2023/09/13 04:15:45;;;;;;;3.63;1.80;;;15.60;99.90;;;;;;4992263;28;20235;-86
2023/09/13 04:18:11;;;;;;;4.47;1.98;;;15.60;99.90;;;;;;5010333;28;20359;-86
2023/09/13 04:20:37;;;;;;;4.28;1.60;;;15.60;99.90;;;;;;4994883;28;20478;-82
2023/09/13 04:23:03;;;;;;;5.75;2.10;;;15.60;99.90;;;;;;4991856;28;20022;-83
2023/09/13 04:25:28;;;;;;;5.10;1.73;;;15.60;99.90;;;;;;4989507;28;20066;-85
2023/09/13 04:27:54;;;;;;;5.63;1.98;;;15.60;99.90;;;;;;4991874;28;20023;-84
2023/09/13 04:30:20;;;;;;;5.05;2.05;;;15.60;99.90;;;;;;4991334;28;20022;-84
2023/09/13 04:32:47;;;;;;;4.20;1.80;;;15.60;99.90;;;;;;5007827;28;20026;-86
2023/09/13 04:35:13;;;;;;;7.07;2.17;;;15.50;99.90;;;;;;5009887;28;20026;-82
2023/09/13 04:37:39;;;;;;;3.35;1.80;;;15.40;99.90;;;;;;4999258;28;20034;-82
2023/09/13 04:40:05;;;;;;;4.28;1.80;;;15.50;99.90;;;;;;4976221;28;20038;-83
2023/09/13 04:42:42;;;;;;;3.08;1.80;;;15.40;99.90;;;;;;4984773;28;20113;-86
2023/09/13 04:45:08;;;;;;;5.40;1.98;;;15.40;99.90;;;;;;4995932;28;20034;-84
2023/09/13 04:47:35;;;;;;;3.95;2.00;;;15.50;99.90;;;;;;4984939;28;20090;-82
2023/09/13 04:50:00;;;;;;;4.45;2.00;;;15.50;99.90;;;;;;4993297;28;20026;-82
2023/09/13 04:52:26;;;;;;;6.05;2.20;;;15.40;99.90;;;;;;5001403;28;20037;-81
2023/09/13 04:54:51;;;;;;;5.30;2.03;;;15.40;99.90;;;;;;4999432;28;20027;-86
2023/09/13 04:57:17;;;;;;;5.55;2.13;;;15.30;99.90;;;;;;4982839;28;20529;-82
2023/09/13 04:59:44;;;;;;;5.97;2.20;;;15.30;99.90;;;;;;4989065;28;20412;-85
2023/09/13 05:02:11;;;;;;;4.60;1.88;;;15.30;99.90;;;;;;4987777;28;20034;-84
2023/09/13 05:04:37;;;;;;;8.02;2.35;;;15.30;99.90;;;;;;4990333;28;20507;-89
2023/09/13 05:07:03;;;;;;;4.38;2.03;;;15.30;99.90;;;;;;4990330;28;20053;-84
2023/09/13 05:09:29;;;;;;;8.32;2.08;;;15.20;99.90;;;;;;4989908;28;20398;-79
2023/09/13 05:11:54;;;;;;;4.97;1.70;;;15.20;99.90;;;;;;4995842;28;20401;-83
2023/09/13 05:14:20;;;;;;;6.90;2.00;;;15.20;99.90;;;;;;4988026;28;20038;-82
2023/09/13 05:16:45;;;;;;;3.05;1.63;;;15.10;99.90;;;;;;4978766;28;20023;-83
2023/09/13 05:19:11;;;;;;;5.13;1.77;;;15.20;99.90;;;;;;4971482;28;20039;-88
2023/09/13 05:21:36;;;;;;;4.55;1.73;;;15.10;99.90;;;;;;4971701;28;20029;-85
2023/09/13 05:24:02;;;;;;;5.03;2.13;;;15.10;99.90;;;;;;4971207;28;20483;-85
2023/09/13 05:26:28;;;;;;;5.60;1.98;;;15.00;99.90;;;;;;4972038;28;20098;-84
2023/09/13 05:28:53;;;;;;;4.30;2.08;;;15.00;99.90;;;;;;4984546;28;20102;-85
2023/09/13 05:31:19;;;;;;;6.35;2.20;;;15.10;99.90;;;;;;4989050;28;20100;-84
2023/09/13 05:33:45;;;;;;;5.80;2.30;;;15.00;99.90;;;;;;4990574;28;20475;-83
2023/09/13 05:36:15;;;;;;;5.35;2.20;;;15.00;99.90;;;;;;4990367;28;20080;-86
2023/09/13 05:38:41;;;;;;;4.93;2.10;;;14.90;99.90;;;;;;4990123;28;20053;-86
2023/09/13 05:41:09;;;;;;;3.95;2.00;;;15.00;99.90;;;;;;4989203;28;20018;-86
2023/09/13 05:43:39;;;;;;;5.90;2.10;;;15.00;99.90;;;;;;4989628;28;20076;-83
2023/09/13 05:46:06;;;;;;;3.03;1.90;;;15.00;99.90;;;;;;4990380;28;20023;-82
2023/09/13 05:48:32;;;;;;;5.82;2.38;;;15.00;99.90;;;;;;4989169;28;20462;-82
2023/09/13 05:50:58;;;;;;;9.57;2.45;;;15.00;99.90;;;;;;4989745;28;20548;-82
2023/09/13 05:53:23;;;;;;;7.28;2.10;;;15.00;99.90;;;;;;4990269;28;20026;-82
2023/09/13 05:55:49;;;;;;;9.95;2.47;;;15.00;99.90;;;;;;4990050;28;20033;-86
2023/09/13 05:58:16;;;;;;;4.47;2.30;;;15.00;99.90;;;;;;4990052;28;20026;-82
2023/09/13 06:00:43;;;;;;;4.40;2.25;;;15.00;99.90;;;;;;4988582;28;20398;-84
2023/09/13 06:03:08;;;;;;;8.07;2.40;;;15.00;99.90;;;;;;4969196;28;20618;-82
2023/09/13 06:05:38;;;;;;;8.07;2.08;;;15.00;99.90;;;;;;4970670;28;20106;-81
2023/09/13 06:08:04;;;;;;;3.78;2.13;;;15.10;99.90;;;;;;4970692;28;20023;-82
2023/09/13 06:10:29;;;;;;;6.05;2.08;;;15.10;99.90;;;;;;4986443;28;20118;-82
2023/09/13 06:12:55;;;;;;;14.32;2.13;;;15.10;99.90;;;;;;4970615;28;20101;-83
2023/09/13 06:15:21;;;;;;;4.50;2.10;;;15.10;99.90;;;;;;4982561;28;20398;-82
2023/09/13 06:17:47;;;;;;;7.32;1.98;;;15.10;99.90;;;;;;4989968;28;20073;-85
2023/09/13 06:20:12;;;;;;;6.60;2.10;;;15.10;99.90;;;;;;4989720;28;20066;-83
2023/09/13 06:22:38;;;;;;;10.45;2.50;;;15.10;99.90;;;;;;4989776;28;20014;-82
2023/09/13 06:25:04;;;;;;;7.07;2.28;;;15.10;99.90;;;;;;4989898;28;20513;-82
2023/09/13 06:27:29;;;;;;;7.22;2.63;;;15.20;99.90;;;;;;4990705;28;20028;-82
2023/09/13 06:29:56;;;;;;;5.22;2.30;;;15.20;99.90;;;;;;4988389;28;20031;-82
2023/09/13 06:32:21;;;;;;;9.23;2.50;;;15.20;99.90;;;;;;4988481;28;20101;-83
2023/09/13 06:34:47;;;;;;;7.07;2.28;;;15.30;99.90;;;;;;4989829;28;20129;-82
2023/09/13 06:37:13;;;;;;;10.82;2.97;;;15.30;99.90;;;;;;4989085;28;20049;-81
2023/09/13 06:39:38;;;;;;;4.95;2.13;;;15.40;99.90;;;;;;4988945;28;20049;-87
2023/09/13 06:42:05;;;;;;;5.35;2.33;;;15.40;99.90;;;;;;4989664;28;20072;-82
2023/09/13 06:44:30;;;;;;;6.97;2.70;;;15.50;99.90;;;;;;4990530;28;20019;-86
2023/09/13 06:46:56;;;;;;;8.60;2.45;;;15.50;99.90;;;;;;4982631;28;20549;-82
2023/09/13 06:49:22;;;;;;;7.30;2.60;;;15.60;99.90;;;;;;4971156;28;20058;-85
2023/09/13 06:51:47;;;;;;;8.45;2.70;;;15.60;99.90;;;;;;4974189;28;20034;-82
2023/09/13 06:54:14;;;;;;;6.10;2.30;;;15.60;99.90;;;;;;4983443;28;20109;-87
2023/09/13 06:56:42;;;;;;;5.57;2.25;;;15.70;99.90;;;;;;4993393;28;20069;-83
2023/09/13 06:59:07;;;;;;;;;;;15.70;99.90;;;;;;4993816;28;20031;-87
2023/09/13 07:01:33;;;;;;;9.73;2.70;;;15.70;99.90;;;;;;4993120;28;19906;-86
2023/09/13 07:03:59;;;;;;;8.93;3.13;;;15.60;99.90;;;;;;4994274;28;20026;-86
2023/09/13 07:06:25;;;;;;;6.50;2.15;;;15.70;99.90;;;;;;4991578;28;20041;-82
2023/09/13 07:08:51;;;;;;;8.23;2.72;;;15.80;99.90;;;;;;4991975;28;20402;-87
2023/09/13 07:11:16;;;;;;;8.98;2.70;;;15.80;99.90;;;;;;4993060;28;20098;-83
2023/09/13 07:13:42;;;;;;;6.55;2.50;;;15.90;99.90;;;;;;4991861;28;20042;-82
2023/09/13 07:16:08;;;;;;;7.43;2.50;;;15.90;99.90;;;;;;4990994;28;20026;-83
2023/09/13 07:18:34;;;;;;;8.02;2.60;;;16.00;99.90;;;;;;4993052;28;20074;-87
2023/09/13 07:21:00;;;;;;;4.15;2.17;;;16.00;99.90;;;;;;4992115;28;20375;-82
2023/09/13 07:23:26;;;;;;;9.82;2.42;;;16.10;99.90;;;;;;4992817;28;20547;-82
2023/09/13 07:25:52;;;;;;;10.25;2.83;;;16.10;99.90;;;;;;4992151;28;20514;-83
2023/09/13 07:28:17;;;;;;;9.82;2.80;;;16.20;99.90;;;;;;4992945;28;20050;-82
2023/09/13 07:30:43;;;;;;;12.32;2.80;;;16.30;99.90;;;;;;4992926;28;20089;-83
2023/09/13 07:33:09;;;;;;;9.00;2.70;;;16.30;99.90;;;;;;4992197;28;20113;-82
2023/09/13 07:35:34;;;;;;;11.60;2.95;;;16.40;99.90;;;;;;4993510;28;20022;-83
2023/09/13 07:38:00;;;;;;;7.57;2.70;;;16.40;99.90;;;;;;4992754;28;20027;-83
2023/09/13 07:40:26;;;;;;;10.02;2.60;;;16.50;99.90;;;;;;4992854;28;20050;-82
2023/09/13 07:42:51;;;;;;;11.05;2.63;;;16.60;99.90;;;;;;4991435;28;20027;-82
2023/09/13 07:45:17;;;;;;;5.88;3.00;;;16.80;99.90;;;;;;4992588;28;20038;-83
2023/09/13 07:47:43;;;;;;;11.05;2.40;;;16.90;99.90;;;;;;4991712;28;20053;-82
2023/09/13 07:50:28;;;;;;;9.25;2.58;;;17.00;99.90;;;;;;4992402;28;20088;-83
2023/09/13 07:52:53;;;;;;;11.15;2.55;;;17.10;99.90;;;;;;4992578;28;20018;-85
2023/09/13 07:55:19;;;;;;;7.25;2.50;;;17.20;99.90;;;;;;4991055;28;20029;-87
2023/09/13 07:57:45;;;;;;;9.75;2.70;;;17.20;99.90;;;;;;4991091;28;20062;-83
2023/09/13 08:00:11;;;;;;;12.27;2.80;;;17.40;99.90;;;;;;4991832;28;20521;-82
2023/09/13 08:02:37;;;;;;;7.85;2.70;;;17.40;99.90;;;;;;4990940;28;20026;-82
2023/09/13 08:05:03;;;;;;;8.85;2.78;;;17.60;99.90;;;;;;4991902;28;20038;-87
2023/09/13 08:07:29;;;;;;;8.48;2.50;;;17.60;99.90;;;;;;4992540;28;20026;-86
2023/09/13 08:09:55;;;;;;;14.98;3.22;;;17.80;99.90;;;;;;4992416;28;20106;-86
2023/09/13 08:12:21;;;;;;;7.47;3.00;;;17.90;99.90;;;;;;4991040;28;20057;-87
2023/09/13 08:14:46;;;;;;;9.73;2.90;;;17.90;99.90;;;;;;4990946;28;20026;-87
2023/09/13 08:17:12;;;;;;;10.73;2.95;;;18.00;99.90;;;;;;4990619;28;20435;-87
2023/09/13 08:19:38;;;;;;;8.75;2.85;;;18.20;99.90;;;;;;4991054;28;20105;-84
2023/09/13 08:22:04;;;;;;;7.10;2.70;;;18.30;99.90;;;;;;4993044;28;20034;-86
2023/09/13 08:24:32;;;;;;;10.07;2.55;;;18.40;99.90;;;;;;4991840;28;20041;-85
2023/09/13 08:26:57;;;;;;;11.50;3.20;;;18.50;99.90;;;;;;4992095;28;20044;-84
2023/09/13 08:29:23;;;;;;;8.48;2.95;;;18.50;99.90;;;;;;4992026;28;20030;-87
2023/09/13 08:31:48;;;;;;;7.65;2.83;;;18.60;99.90;;;;;;4991013;28;20033;-87
2023/09/13 08:34:14;;;;;;;7.28;2.85;;;18.70;99.90;;;;;;4991947;28;20544;-87
2023/09/13 08:36:40;;;;;;;8.40;3.35;;;18.80;99.90;;;;;;4991788;28;20033;-87
2023/09/13 08:39:06;;;;;;;10.13;3.28;;;18.90;99.90;;;;;;4978723;28;20038;-85
2023/09/13 08:41:32;;;;;;;12.55;3.00;;;19.00;99.90;;;;;;4975350;28;20101;-86
2023/09/13 08:43:59;;;;;;;10.52;2.83;;;19.20;99.90;;;;;;4991740;28;20074;-88
2023/09/13 08:46:26;;;;;;;10.18;3.15;;;19.30;99.90;;;;;;4991774;28;20026;-87
2023/09/13 08:48:54;;;;;;;9.73;2.95;;;19.40;99.90;;;;;;4991683;28;20023;-86
2023/09/13 08:51:21;;;;;;;13.27;3.60;;;19.50;99.90;;;;;;4991724;28;20030;-88
2023/09/13 08:53:49;;;;;;;11.68;3.42;;;19.50;99.90;;;;;;4990894;28;20575;-84
2023/09/13 08:56:15;;;;;;;8.02;2.90;;;19.50;99.90;;;;;;4991618;28;20034;-85
2023/09/13 08:58:40;;;;;;;13.45;3.50;;;19.60;99.90;;;;;;4991520;28;20061;-85
2023/09/13 09:01:09;;;;;;;11.65;3.50;;;19.80;99.90;;;;;;4992191;28;20101;-87
2023/09/13 09:03:36;;;;;;;9.38;3.42;;;20.00;99.90;;;;;;4990535;28;20457;-86
2023/09/13 09:06:04;;;;;;;6.55;3.00;;;20.20;99.90;;;;;;4990343;28;20390;-87
2023/09/13 09:08:30;;;;;;;9.63;3.33;;;20.40;99.90;;;;;;4989445;28;20030;-86
2023/09/13 09:10:59;;;;;;;12.73;3.00;;;20.20;99.90;;;;;;4987198;28;20137;-86
2023/09/13 09:13:27;;;;;;;7.63;2.78;;;20.10;99.90;;;;;;4990403;28;20061;-85
2023/09/13 09:15:56;;;;;;;9.40;2.75;;;20.20;99.90;;;;;;4991183;28;20051;-85
2023/09/13 09:18:24;;;;;;;6.88;2.47;;;20.50;99.90;;;;;;4991082;28;20033;-87
2023/09/13 09:20:50;;;;;;;8.43;3.47;;;20.70;99.90;;;;;;4989513;28;20545;-83
2023/09/13 09:23:17;;;;;;;8.40;2.60;;;20.40;99.90;;;;;;4990729;28;20046;-87
2023/09/13 09:25:44;;;;;;;9.35;2.55;;;20.50;99.90;;;;;;4990705;28;20073;-83
2023/09/13 09:28:10;;;;;;;8.73;2.50;;;20.50;99.90;;;;;;4990533;28;20030;-84
2023/09/13 09:30:36;;;;;;;7.10;2.60;;;20.80;99.90;;;;;;4989416;28;20073;-83
2023/09/13 09:33:06;;;;;;;5.57;2.38;;;20.70;99.90;;;;;;4990680;28;20263;-83
2023/09/13 09:35:33;;;;;;;6.25;2.88;;;20.70;99.90;;;;;;4990401;28;20664;-84
2023/09/13 09:37:59;;;;;;;6.90;2.80;;;20.80;99.90;;;;;;4990551;28;20065;-83
2023/09/13 09:40:25;;;;;;;6.97;3.00;;;20.70;99.90;;;;;;4990384;28;20046;-83
2023/09/13 09:42:52;;;;;;;8.25;3.20;;;20.60;99.90;;;;;;4988342;28;20027;-83
2023/09/13 09:45:18;;;;;;;7.30;2.70;;;20.20;99.90;;;;;;4989117;28;20525;-83
2023/09/13 09:47:44;;;;;;;5.88;2.67;;;20.30;99.90;;;;;;4988597;28;20155;-83
2023/09/13 09:50:11;;;;;;;7.10;2.95;;;20.40;99.90;;;;;;4989724;28;20026;-87
2023/09/13 09:52:36;;;;;;;8.80;2.92;;;20.70;99.90;;;;;;4990454;28;20015;-85
2023/09/13 09:55:04;;;;;;;9.35;2.60;;;20.80;99.90;;;;;;4990453;28;20105;-86
2023/09/13 09:57:30;;;;;;;11.95;3.00;;;21.00;99.90;;;;;;4980394;28;20026;-84
2023/09/13 09:59:58;;;;;;;7.10;2.47;;;20.90;99.90;;;;;;4970879;28;20443;-87
2023/09/13 10:02:28;;;;;;;5.25;2.60;;;20.80;99.90;;;;;;4985577;28;20085;-87
2023/09/13 10:04:53;;;;;;;7.65;2.75;;;20.90;99.90;;;;;;4970740;28;20027;-88
2023/09/13 10:07:20;;;;;;;6.07;2.58;;;20.90;99.90;;;;;;4969505;28;20033;-86
2023/09/13 10:09:47;;;;;;;5.15;2.10;;;21.00;99.90;;;;;;4970647;28;20081;-87
2023/09/13 10:12:14;;;;;;;4.53;2.00;;;21.10;99.90;;;;;;4970303;28;20095;-84
2023/09/13 10:14:42;;;;;;;7.23;3.43;;;21.20;99.90;;;;;;4981981;28;20026;-83
2023/09/13 10:17:11;;;;;;;5.53;2.10;;;21.20;99.90;;;;;;4989383;28;20324;-83
2023/09/13 10:19:38;;;;;;;5.15;2.10;;;21.40;99.90;;;;;;4989366;28;20074;-88
2023/09/13 10:22:04;;;;;;;5.78;2.30;;;21.30;99.90;;;;;;4990057;28;20470;-85
2023/09/13 10:24:44;;;;;;;8.23;2.90;;;21.30;99.90;;;;;;4989501;28;20071;-85
2023/09/13 10:27:11;;;;;;;4.70;2.28;;;21.20;99.90;;;;;;4989093;28;20027;-85
2023/09/13 10:29:40;;;;;;;17.27;2.43;;;21.30;99.90;;;;;;4988873;28;20113;-87
2023/09/13 10:32:09;;;;;;;17.50;2.60;;;21.20;99.90;;;;;;4989422;28;20306;-85
2023/09/13 10:34:37;;;;;;;8.20;2.38;;;21.50;99.90;;;;;;4990119;28;20022;-86
2023/09/13 10:37:42;;;;;;;13.27;2.63;;;21.60;99.90;;;;;;4989865;28;20033;-86
2023/09/13 10:40:23;;;;;;;49.22;3.20;;;21.80;99.90;;;;;;4990052;28;20031;-87
2023/09/13 10:42:49;;;;;;;11.55;1.77;;;21.90;99.90;;;;;;4990026;28;20024;-87
2023/09/13 10:45:19;;;;;;;8.68;2.10;;;21.80;99.90;;;;;;4989420;28;20026;-87
2023/09/13 10:47:50;;;;;;;7.05;1.70;;;21.80;99.90;;;;;;4989431;28;20483;-86
2023/09/13 10:50:16;;;;;;;7.38;1.80;;;21.60;99.90;;;;;;4990640;28;20037;-86
2023/09/13 10:52:44;;;;;;;4.35;1.60;;;21.40;99.90;;;;;;4990778;28;20034;-88
2023/09/13 10:55:14;;;;;;;4.38;1.58;;;21.30;99.90;;;;;;4990034;28;20109;-87
2023/09/13 10:57:41;;;;;;;5.43;1.80;;;21.40;99.90;;;;;;4988394;28;20387;-86
2023/09/13 11:00:12;;;;;;;16.58;2.22;;;21.60;99.90;;;;;;4987615;28;20045;-83
2023/09/13 11:02:40;;;;;;;35.30;2.35;;;21.60;99.90;;;;;;4988214;28;20036;-83
2023/09/13 11:05:07;;;;;;;18.40;1.77;;;21.60;99.90;;;;;;4989816;28;20041;-86
2023/09/13 11:07:40;;;;;;;13.25;1.55;;;21.60;99.90;;;;;;4989848;28;20014;-88
2023/09/13 11:10:11;;;;;;;1.98;1.33;;;21.40;99.90;;;;;;4988410;28;20041;-87
2023/09/13 11:12:36;;;;;;;8.77;1.50;;;21.50;99.90;;;;;;4988365;28;20039;-88
2023/09/13 11:15:13;;;;;;;4.43;1.35;;;21.60;99.90;;;;;;4989642;28;20494;-87
2023/09/13 11:17:40;;;;;;;1.95;1.30;;;21.60;99.90;;;;;;4988869;28;20053;-88
2023/09/13 11:20:28;;;;;;;2.42;1.27;;;21.70;99.90;;;;;;4989460;28;20038;-86
2023/09/13 11:23:18;;;;;;;2.28;1.20;;;21.60;99.90;;;;;;4989581;28;20023;-88
2023/09/13 11:26:02;;;;;;;3.10;1.40;;;21.70;99.90;;;;;;4989973;28;20398;-85
2023/09/13 11:28:36;;;;;;;3.30;1.42;;;21.50;99.90;;;;;;4989625;28;20018;-88
2023/09/13 11:31:04;;;;;;;2.53;1.17;;;21.60;99.90;;;;;;4989498;28;20026;-84
2023/09/13 11:33:31;;;;;;;9.98;1.25;;;21.70;99.90;;;;;;4988145;28;20053;-88
2023/09/13 11:35:58;;;;;;;3.50;1.25;;;21.70;99.90;;;;;;4990523;28;20121;-87
2023/09/13 11:38:25;;;;;;;3.25;1.27;;;21.90;99.90;;;;;;4991751;28;20030;-88
2023/09/13 11:40:55;;;;;;;3.67;1.27;;;21.90;99.90;;;;;;4991800;28;20035;-87
2023/09/13 11:43:25;;;;;;;2.65;1.38;;;21.70;99.90;;;;;;4993012;28;20040;-86
2023/09/13 11:45:55;;;;;;;2.08;1.30;;;21.70;99.90;;;;;;4993031;28;20029;-88
2023/09/13 11:48:39;;;;;;;5.47;1.40;;;21.70;99.90;;;;;;4990731;28;20383;-86
2023/09/13 11:51:12;;;;;;;6.18;1.40;;;21.60;99.90;;;;;;4992286;28;20093;-87
2023/09/13 11:53:39;;;;;;;3.83;1.50;;;21.80;99.90;;;;;;4992633;28;20101;-87
2023/09/13 11:56:05;;;;;;;3.55;1.50;;;21.70;99.90;;;;;;4991378;28;20022;-88
2023/09/13 11:58:36;;;;;;;6.43;1.50;;;21.70;99.90;;;;;;4992644;28;20022;-87
2023/09/13 12:01:06;;;;;;;5.38;1.48;;;21.80;99.90;;;;;;4991227;28;20058;-87
2023/09/13 12:03:43;;;;;;;2.53;1.40;;;21.80;99.90;;;;;;4990596;28;20031;-87
2023/09/13 12:06:09;;;;;;;3.07;1.40;;;22.00;99.90;;;;;;4984119;28;20026;-85
2023/09/13 12:08:37;;;;;;;2.92;1.75;;;21.80;99.90;;;;;;4972773;28;20117;-87
2023/09/13 12:11:08;;;;;;;2.85;1.40;;;21.90;99.90;;;;;;4971922;28;20442;-87
2023/09/13 12:13:48;;;;;;;5.10;1.58;;;22.00;99.90;;;;;;4973054;28;20514;-87
2023/09/13 12:16:15;;;;;;;3.35;1.55;;;21.90;99.90;;;;;;4971543;28;20446;-86
2023/09/13 12:18:42;;;;;;;5.50;1.40;;;21.90;99.90;;;;;;4987881;28;20246;-87
2023/09/13 12:21:10;;;;;;;3.63;1.55;;;21.70;99.90;;;;;;4976475;28;20033;-86
2023/09/13 12:23:38;;;;;;;3.08;1.40;;;21.70;99.90;;;;;;4992088;28;20121;-86
2023/09/13 12:26:07;;;;;;;4.63;1.45;;;22.00;99.90;;;;;;4992053;28;20080;-86
2023/09/13 12:28:38;;;;;;;3.55;1.63;;;22.10;99.90;;;;;;4991955;28;20030;-87
2023/09/13 12:31:14;;;;;;;2.17;1.38;;;22.20;99.90;;;;;;4990615;28;20042;-86
2023/09/13 12:33:41;;;;;;;3.85;1.52;;;22.30;99.90;;;;;;4991321;28;20026;-85
2023/09/13 12:36:07;;;;;;;3.67;1.60;;;22.30;99.90;;;;;;4990793;28;20061;-89
2023/09/13 12:38:43;;;;;;;3.03;1.70;;;22.50;99.90;;;;;;4989478;28;20313;-87
2023/09/13 12:41:10;;;;;;;1.95;1.52;;;22.50;99.90;;;;;;4990521;28;20058;-87
2023/09/13 12:43:36;;;;;;;4.25;1.75;;;22.60;99.90;;;;;;4991810;28;20415;-88
2023/09/13 12:46:05;;;;;;;5.07;1.80;;;22.60;99.90;;;;;;4990323;28;20030;-83